createdAt,value
2023-08-06T00:00:01.304Z,83.67
2023-08-06T00:02:28.553Z,83.51
2023-08-06T00:04:55.683Z,84.35
2023-08-06T00:07:22.905Z,85.06
2023-08-06T00:09:50.033Z,84.40
2023-08-06T00:12:17.246Z,82.98
2023-08-06T00:14:44.725Z,83.53
2023-08-06T00:17:12.173Z,83.09
2023-08-06T00:19:39.304Z,83.50
2023-08-06T00:22:06.476Z,85.62
2023-08-06T00:24:34.200Z,85.27
2023-08-06T00:27:01.523Z,83.35
2023-08-06T00:29:28.664Z,84.14
2023-08-06T00:31:55.857Z,83.69
2023-08-06T00:34:23.080Z,85.04
2023-08-06T00:36:50.226Z,84.51
2023-08-06T00:39:17.346Z,84.21
2023-08-06T00:41:44.495Z,84.45
2023-08-06T00:44:11.783Z,83.85
2023-08-06T00:46:40.935Z,83.62
2023-08-06T00:49:08.884Z,83.25
2023-08-06T00:51:36.087Z,83.31
2023-08-06T00:54:04.954Z,82.90
2023-08-06T00:56:35.168Z,83.19
2023-08-06T00:59:02.604Z,81.86
2023-08-06T01:01:29.829Z,83.57
2023-08-06T01:03:57.538Z,84.25
2023-08-06T01:06:49.661Z,85.17
2023-08-06T01:09:29.508Z,84.66
2023-08-06T01:12:24.691Z,84.27
2023-08-06T01:15:12.572Z,83.11
2023-08-06T01:17:41.636Z,82.46
2023-08-06T01:20:09.331Z,83.22
2023-08-06T01:22:36.626Z,82.52
2023-08-06T01:25:04.216Z,83.64
2023-08-06T01:27:50.972Z,83.11
2023-08-06T01:30:26.494Z,83.23
2023-08-06T01:33:01.350Z,83.23
2023-08-06T01:35:31.043Z,84.32
2023-08-06T01:38:01.776Z,83.69
2023-08-06T01:40:30.546Z,83.60
2023-08-06T01:42:58.233Z,84.06
2023-08-06T01:45:25.356Z,84.63
2023-08-06T01:47:55.069Z,83.73
2023-08-06T01:50:23.889Z,85.38
2023-08-06T01:52:55.073Z,84.11
2023-08-06T01:55:22.216Z,83.89
2023-08-06T01:57:49.931Z,85.62
2023-08-06T02:00:17.117Z,84.30
2023-08-06T02:02:44.257Z,83.59
2023-08-06T02:05:11.481Z,84.50
2023-08-06T02:07:40.849Z,83.83
2023-08-06T02:10:08.578Z,84.22
2023-08-06T02:12:35.744Z,84.88
2023-08-06T02:15:03.345Z,85.76
2023-08-06T02:17:30.606Z,85.09
2023-08-06T02:19:58.028Z,85.12
2023-08-06T02:22:28.296Z,85.53
2023-08-06T02:24:55.443Z,85.24
2023-08-06T02:27:22.602Z,84.78
2023-08-06T02:29:49.725Z,84.21
2023-08-06T02:32:16.928Z,83.65
2023-08-06T02:34:44.109Z,83.30
2023-08-06T02:37:11.222Z,83.46
2023-08-06T02:39:41.111Z,82.87
2023-08-06T02:42:08.798Z,83.65
2023-08-06T02:44:36.603Z,83.55
2023-08-06T02:47:03.868Z,83.74
2023-08-06T02:49:31.134Z,84.16
2023-08-06T02:51:58.337Z,85.05
2023-08-06T02:54:25.561Z,84.42
2023-08-06T02:56:52.691Z,84.02
2023-08-06T02:59:25.629Z,83.87
2023-08-06T03:02:11.150Z,85.11
2023-08-06T03:04:48.296Z,84.07
2023-08-06T03:07:16.068Z,84.72
2023-08-06T03:09:52.892Z,85.55
2023-08-06T03:12:21.311Z,84.12
2023-08-06T03:14:49.493Z,83.39
2023-08-06T03:17:17.750Z,83.89
2023-08-06T03:19:44.937Z,84.52
2023-08-06T03:22:13.096Z,83.83
2023-08-06T03:24:42.066Z,83.48
2023-08-06T03:27:09.715Z,84.06
2023-08-06T03:29:39.833Z,84.40
2023-08-06T03:32:07.492Z,84.01
2023-08-06T03:34:34.667Z,83.81
2023-08-06T03:37:02.726Z,84.84
2023-08-06T03:39:29.918Z,84.31
2023-08-06T03:41:57.069Z,83.90
2023-08-06T03:44:25.089Z,84.11
2023-08-06T03:46:52.282Z,84.14
2023-08-06T03:49:19.469Z,84.79
2023-08-06T03:51:47.763Z,84.04
2023-08-06T03:54:14.904Z,85.29
2023-08-06T03:56:42.502Z,84.50
2023-08-06T03:59:09.699Z,86.15
2023-08-06T04:01:36.918Z,85.22
2023-08-06T04:04:04.277Z,84.99
2023-08-06T04:06:31.395Z,84.93
2023-08-06T04:08:58.990Z,85.14
2023-08-06T04:11:26.601Z,85.40
2023-08-06T04:13:55.272Z,85.27
2023-08-06T04:16:22.910Z,85.88
2023-08-06T04:18:50.088Z,84.59
2023-08-06T04:21:17.230Z,84.64
2023-08-06T04:23:44.361Z,85.54
2023-08-06T04:26:11.832Z,86.11
2023-08-06T04:28:39.369Z,85.64
2023-08-06T04:31:06.539Z,85.55
2023-08-06T04:33:34.953Z,85.21
2023-08-06T04:36:08.298Z,84.53
2023-08-06T04:38:35.695Z,84.16
2023-08-06T04:41:04.451Z,84.04
2023-08-06T04:43:31.845Z,84.67
2023-08-06T04:45:59.013Z,83.57
2023-08-06T04:48:26.367Z,83.83
2023-08-06T04:50:53.495Z,82.60
2023-08-06T04:53:20.653Z,83.36
2023-08-06T04:55:48.311Z,83.58
2023-08-06T04:58:15.405Z,84.00
2023-08-06T05:00:43.090Z,83.43
2023-08-06T05:03:10.244Z,83.97
2023-08-06T05:05:37.366Z,83.65
2023-08-06T05:08:04.555Z,83.68
2023-08-06T05:10:31.693Z,82.77
2023-08-06T05:12:58.838Z,82.66
2023-08-06T05:15:28.939Z,83.27
2023-08-06T05:17:56.080Z,82.74
2023-08-06T05:20:23.337Z,83.96
2023-08-06T05:22:50.541Z,83.98
2023-08-06T05:25:19.492Z,83.99
2023-08-06T05:27:46.660Z,83.44
2023-08-06T05:30:13.797Z,83.71
2023-08-06T05:32:40.980Z,83.45
2023-08-06T05:35:08.147Z,83.95
2023-08-06T05:37:35.322Z,84.00
2023-08-06T05:40:03.836Z,83.46
2023-08-06T05:42:31.829Z,83.77
2023-08-06T05:44:58.956Z,83.65
2023-08-06T05:47:26.178Z,83.85
2023-08-06T05:49:53.309Z,83.27
2023-08-06T05:52:20.667Z,82.73
2023-08-06T05:54:47.808Z,82.69
2023-08-06T05:57:14.978Z,82.23
2023-08-06T05:59:42.368Z,82.78
2023-08-06T06:02:09.612Z,83.07
2023-08-06T06:04:36.765Z,82.22
2023-08-06T06:07:04.100Z,82.24
2023-08-06T06:09:31.239Z,81.87
2023-08-06T06:11:58.437Z,82.72
2023-08-06T06:14:25.538Z,83.25
2023-08-06T06:16:54.041Z,82.90
2023-08-06T06:19:21.281Z,83.69
2023-08-06T06:21:48.428Z,83.61
2023-08-06T06:24:15.553Z,83.26
2023-08-06T06:26:42.719Z,83.53
2023-08-06T06:29:09.835Z,83.65
2023-08-06T06:31:37.038Z,82.84
2023-08-06T06:34:04.185Z,82.54
2023-08-06T06:36:31.314Z,82.01
2023-08-06T06:38:58.500Z,82.51
2023-08-06T06:41:27.392Z,83.01
2023-08-06T06:43:54.530Z,83.19
2023-08-06T06:46:21.676Z,82.56
2023-08-06T06:48:48.799Z,82.64
2023-08-06T06:51:15.899Z,83.10
2023-08-06T06:53:43.110Z,83.25
2023-08-06T06:56:10.394Z,82.32
2023-08-06T06:58:39.701Z,81.65
2023-08-06T07:01:06.850Z,82.11
2023-08-06T07:03:34.083Z,81.63
2023-08-06T07:06:01.218Z,82.80
2023-08-06T07:08:28.571Z,80.98
2023-08-06T07:11:06.563Z,80.28
2023-08-06T07:13:35.479Z,80.88
2023-08-06T07:16:02.796Z,80.66
2023-08-06T07:18:30.034Z,81.47
2023-08-06T07:20:57.314Z,81.14
2023-08-06T07:23:26.294Z,81.15
2023-08-06T07:25:53.706Z,80.79
2023-08-06T07:28:21.045Z,80.39
2023-08-06T07:30:48.517Z,80.63
2023-08-06T07:33:15.836Z,79.10
2023-08-06T07:35:44.232Z,79.62
2023-08-06T07:38:11.557Z,79.31
2023-08-06T07:40:39.782Z,80.90
2023-08-06T07:43:06.973Z,80.26
2023-08-06T07:45:35.962Z,79.40
2023-08-06T07:48:03.825Z,79.56
2023-08-06T07:50:31.039Z,78.00
2023-08-06T07:52:58.226Z,78.81
2023-08-06T07:55:26.727Z,77.90
2023-08-06T07:57:55.449Z,78.62
2023-08-06T08:00:22.620Z,78.06
2023-08-06T08:02:49.997Z,78.60
2023-08-06T08:05:17.320Z,78.84
2023-08-06T08:07:45.214Z,79.01
2023-08-06T08:10:12.539Z,79.75
2023-08-06T08:12:39.652Z,79.13
2023-08-06T08:15:07.360Z,79.26
2023-08-06T08:17:35.644Z,78.40
2023-08-06T08:20:03.017Z,79.11
2023-08-06T08:22:30.273Z,79.20
2023-08-06T08:24:57.392Z,78.75
2023-08-06T08:27:24.574Z,79.20
2023-08-06T08:29:51.707Z,79.23
2023-08-06T08:32:18.984Z,79.96
2023-08-06T08:34:46.144Z,80.10
2023-08-06T08:37:14.556Z,81.05
2023-08-06T08:39:41.741Z,80.31
2023-08-06T08:42:10.939Z,79.09
2023-08-06T08:44:40.421Z,80.38
2023-08-06T08:47:09.368Z,79.79
2023-08-06T08:49:37.125Z,80.36
2023-08-06T08:52:11.241Z,77.94
2023-08-06T08:54:39.355Z,77.73
2023-08-06T08:57:06.536Z,76.79
2023-08-06T08:59:35.106Z,76.74
2023-08-06T09:02:03.072Z,77.10
2023-08-06T09:04:34.877Z,75.41
2023-08-06T09:07:03.049Z,75.34
2023-08-06T09:09:34.620Z,74.46
2023-08-06T09:12:03.418Z,74.43
2023-08-06T09:14:30.586Z,74.19
2023-08-06T09:16:58.591Z,73.80
2023-08-06T09:19:25.797Z,72.92
2023-08-06T09:21:56.651Z,73.40
2023-08-06T09:24:24.184Z,72.93
2023-08-06T09:26:51.364Z,73.66
2023-08-06T09:29:18.745Z,73.12
2023-08-06T09:31:51.702Z,72.42
2023-08-06T09:34:23.166Z,72.04
2023-08-06T09:36:54.900Z,71.63
2023-08-06T09:39:27.624Z,72.02
2023-08-06T09:41:59.712Z,71.50
2023-08-06T09:44:28.691Z,71.67
2023-08-06T09:46:57.403Z,69.18
2023-08-06T09:49:28.167Z,69.26
2023-08-06T09:51:59.320Z,70.95
2023-08-06T09:54:28.468Z,70.59
2023-08-06T09:56:56.214Z,66.76
2023-08-06T09:59:25.229Z,65.50
2023-08-06T10:01:53.367Z,64.75
2023-08-06T10:04:24.558Z,64.88
2023-08-06T10:06:53.672Z,65.21
2023-08-06T10:09:21.518Z,64.79
2023-08-06T10:11:53.786Z,65.64
2023-08-06T10:14:27.353Z,66.22
2023-08-06T10:16:57.749Z,66.84
2023-08-06T10:19:26.682Z,67.04
2023-08-06T10:22:20.070Z,68.99
2023-08-06T10:24:55.309Z,66.43
2023-08-06T10:27:32.921Z,67.23
2023-08-06T10:30:22.603Z,65.58
2023-08-06T10:32:53.699Z,65.91
2023-08-06T10:35:31.564Z,64.25
2023-08-06T10:38:00.567Z,65.27
2023-08-06T10:40:27.707Z,67.25
2023-08-06T10:42:55.136Z,66.90
2023-08-06T10:45:25.169Z,66.21
2023-08-06T10:47:53.902Z,67.42
2023-08-06T10:50:21.593Z,68.92
2023-08-06T10:52:48.915Z,67.82
2023-08-06T10:55:30.098Z,67.46
2023-08-06T10:57:58.804Z,68.84
2023-08-06T11:00:26.381Z,66.62
2023-08-06T11:02:55.998Z,64.79
2023-08-06T11:05:23.259Z,63.07
2023-08-06T11:07:52.197Z,61.50
2023-08-06T11:10:20.975Z,61.85
2023-08-06T11:12:48.148Z,63.05
2023-08-06T11:15:15.332Z,63.19
2023-08-06T11:17:43.120Z,61.63
2023-08-06T11:20:11.053Z,61.87
2023-08-06T11:22:38.749Z,61.61
2023-08-06T11:25:07.481Z,61.98
2023-08-06T11:27:34.788Z,62.03
2023-08-06T11:30:02.157Z,63.35
2023-08-06T11:32:29.421Z,62.77
2023-08-06T11:34:57.181Z,63.69
2023-08-06T11:37:25.748Z,64.65
2023-08-06T11:39:53.035Z,64.58
2023-08-06T11:42:20.403Z,65.73
2023-08-06T11:44:47.755Z,65.08
2023-08-06T11:47:17.233Z,64.49
2023-08-06T11:49:48.243Z,67.45
2023-08-06T11:52:24.246Z,68.17
2023-08-06T11:55:15.888Z,70.97
2023-08-06T11:57:46.843Z,71.55
2023-08-06T12:00:15.044Z,73.98
2023-08-06T12:02:46.120Z,72.91
2023-08-06T12:05:26.984Z,74.09
2023-08-06T12:07:57.081Z,74.42
2023-08-06T12:10:26.455Z,76.47
2023-08-06T12:12:54.965Z,77.05
2023-08-06T12:15:23.090Z,74.77
2023-08-06T12:17:50.925Z,75.86
2023-08-06T12:20:21.057Z,77.38
2023-08-06T12:22:48.258Z,77.83
2023-08-06T12:25:15.490Z,78.59
2023-08-06T12:27:44.130Z,77.28
2023-08-06T12:30:13.046Z,77.74
2023-08-06T12:32:40.537Z,77.31
2023-08-06T12:35:08.611Z,79.15
2023-08-06T12:37:36.560Z,78.09
2023-08-06T12:40:20.099Z,80.03
2023-08-06T12:42:55.011Z,78.49
2023-08-06T12:45:22.319Z,80.39
2023-08-06T12:47:50.697Z,77.98
2023-08-06T12:50:21.025Z,78.74
2023-08-06T12:52:48.170Z,78.47
2023-08-06T12:55:15.280Z,78.50
2023-08-06T13:00:13.117Z,77.19
2023-08-06T13:02:40.285Z,76.87
2023-08-06T13:05:08.047Z,77.41
2023-08-06T13:07:35.232Z,78.59
2023-08-06T13:10:02.372Z,78.83
2023-08-06T13:12:29.612Z,77.64
2023-08-06T13:14:58.404Z,76.18
2023-08-06T13:17:25.668Z,79.57
2023-08-06T13:19:52.779Z,77.70
2023-08-06T13:22:19.914Z,79.40
2023-08-06T13:24:47.014Z,78.70
2023-08-06T13:27:14.762Z,80.96
2023-08-06T13:29:41.909Z,82.50
2023-08-06T13:32:09.078Z,81.12
2023-08-06T13:34:36.228Z,80.95
2023-08-06T13:37:03.457Z,82.08
2023-08-06T13:39:30.666Z,81.98
2023-08-06T13:41:57.793Z,81.28
2023-08-06T13:44:25.039Z,81.27
2023-08-06T13:46:52.510Z,80.27
2023-08-06T13:49:19.921Z,79.82
2023-08-06T13:51:47.123Z,79.74
2023-08-06T13:54:14.218Z,79.63
2023-08-06T13:56:41.369Z,79.52
2023-08-06T13:59:09.258Z,80.18
2023-08-06T14:01:47.940Z,80.79
2023-08-06T14:04:18.219Z,79.79
2023-08-06T14:06:45.465Z,80.08
2023-08-06T14:09:15.123Z,80.04
2023-08-06T14:11:42.374Z,80.50
2023-08-06T14:14:09.482Z,79.90
2023-08-06T14:16:36.681Z,80.90
2023-08-06T14:19:04.671Z,80.45
2023-08-06T14:21:31.894Z,79.59
2023-08-06T14:23:59.001Z,81.79
2023-08-06T14:26:26.131Z,80.48
2023-08-06T14:28:55.515Z,80.35
2023-08-06T14:31:22.812Z,80.17
2023-08-06T14:33:50.009Z,81.90
2023-08-06T14:36:17.179Z,79.84
2023-08-06T14:38:57.786Z,79.31
2023-08-06T14:41:26.690Z,80.21
2023-08-06T14:43:54.851Z,80.21
2023-08-06T14:46:21.995Z,81.30
2023-08-06T14:48:49.203Z,80.08
2023-08-06T14:51:16.366Z,81.13
2023-08-06T14:53:43.584Z,79.68
2023-08-06T14:56:10.719Z,79.98
2023-08-06T14:58:37.880Z,79.57
2023-08-06T15:01:05.145Z,79.59
2023-08-06T15:03:32.751Z,79.45
2023-08-06T15:06:00.011Z,78.51
2023-08-06T15:08:27.155Z,79.30
2023-08-06T15:10:54.788Z,78.73
2023-08-06T15:13:22.278Z,79.75
2023-08-06T15:15:50.575Z,80.96
2023-08-06T15:18:17.877Z,80.47
2023-08-06T15:20:45.039Z,80.92
2023-08-06T15:23:12.139Z,80.77
2023-08-06T15:25:39.464Z,80.47
2023-08-06T15:28:07.215Z,79.36
2023-08-06T15:30:34.397Z,80.10
2023-08-06T15:33:01.544Z,80.41
2023-08-06T15:35:28.740Z,81.48
2023-08-06T15:37:55.893Z,81.09
2023-08-06T15:40:23.092Z,81.33
2023-08-06T15:42:50.289Z,81.79
2023-08-06T15:45:17.421Z,81.85
2023-08-06T15:47:44.579Z,81.70
2023-08-06T15:50:11.772Z,81.32
2023-08-06T15:52:38.996Z,82.79
2023-08-06T15:55:06.806Z,82.78
2023-08-06T15:57:34.727Z,82.34
2023-08-06T16:00:04.082Z,81.99
2023-08-06T16:02:39.161Z,84.11
2023-08-06T16:05:07.164Z,82.14
2023-08-06T16:07:35.864Z,81.92
2023-08-06T16:10:03.349Z,82.26
2023-08-06T16:12:30.533Z,81.98
2023-08-06T16:14:57.671Z,82.44
2023-08-06T16:17:24.855Z,82.21
2023-08-06T16:19:51.999Z,82.41
2023-08-06T16:22:19.549Z,82.03
2023-08-06T16:24:46.863Z,82.29
2023-08-06T16:27:13.990Z,82.04
2023-08-06T16:29:41.101Z,81.28
2023-08-06T16:32:08.366Z,80.73
2023-08-06T16:34:36.016Z,81.91
2023-08-06T16:37:03.278Z,81.27
2023-08-06T16:39:30.778Z,81.86
2023-08-06T16:42:00.001Z,81.38
2023-08-06T16:44:32.122Z,81.61
2023-08-06T16:47:01.649Z,82.03
2023-08-06T16:49:28.755Z,83.16
2023-08-06T16:51:55.900Z,82.73
2023-08-06T16:54:23.097Z,82.89
2023-08-06T16:56:50.254Z,83.97
2023-08-06T16:59:17.584Z,84.22
2023-08-06T17:01:44.705Z,83.54
2023-08-06T17:04:12.618Z,83.33
2023-08-06T17:06:39.767Z,83.52
2023-08-06T17:09:07.050Z,83.42
2023-08-06T17:11:34.271Z,82.31
2023-08-06T17:14:01.762Z,81.72
2023-08-06T17:16:29.004Z,82.44
2023-08-06T17:18:56.203Z,83.00
2023-08-06T17:21:23.325Z,82.51
2023-08-06T17:23:50.418Z,82.80
2023-08-06T17:26:17.602Z,83.87
2023-08-06T17:28:45.398Z,82.31
2023-08-06T17:31:14.049Z,82.40
2023-08-06T17:33:41.368Z,83.59
2023-08-06T17:36:08.501Z,82.61
2023-08-06T17:38:35.629Z,82.54
2023-08-06T17:41:05.648Z,82.24
2023-08-06T17:43:32.893Z,82.04
2023-08-06T17:46:00.012Z,82.46
2023-08-06T17:48:27.213Z,82.26
2023-08-06T17:50:54.361Z,81.84
2023-08-06T17:53:21.467Z,82.06
2023-08-06T17:55:49.125Z,81.88
2023-08-06T17:58:16.524Z,81.31
2023-08-06T18:00:49.264Z,81.62
2023-08-06T18:03:18.133Z,81.52
2023-08-06T18:05:45.425Z,81.30
2023-08-06T18:08:12.843Z,82.06
2023-08-06T18:10:40.391Z,81.43
2023-08-06T18:13:10.030Z,80.93
2023-08-06T18:15:37.170Z,80.71
2023-08-06T18:18:04.419Z,80.59
2023-08-06T18:20:31.983Z,79.99
2023-08-06T18:22:59.104Z,80.91
2023-08-06T18:25:26.265Z,80.18
2023-08-06T18:27:55.078Z,80.33
2023-08-06T18:30:22.288Z,80.43
2023-08-06T18:32:49.569Z,79.66
2023-08-06T18:35:16.699Z,79.95
2023-08-06T18:37:43.951Z,78.94
2023-08-06T18:40:11.460Z,80.13
2023-08-06T18:42:41.532Z,80.21
2023-08-06T18:45:10.721Z,80.26
2023-08-06T18:47:37.871Z,80.11
2023-08-06T18:50:05.751Z,79.25
2023-08-06T18:52:32.853Z,80.15
2023-08-06T18:54:59.974Z,79.38
2023-08-06T18:57:29.979Z,79.82
2023-08-06T18:59:57.229Z,79.89
2023-08-06T19:02:24.419Z,79.08
2023-08-06T19:04:52.032Z,79.58
2023-08-06T19:07:19.271Z,78.60
2023-08-06T19:09:47.751Z,79.76
2023-08-06T19:12:16.206Z,79.72
2023-08-06T19:14:43.467Z,78.63
2023-08-06T19:17:10.615Z,79.70
2023-08-06T19:19:37.844Z,79.60
2023-08-06T19:22:05.212Z,79.32
2023-08-06T19:24:32.329Z,78.29
2023-08-06T19:26:59.431Z,78.55
2023-08-06T19:29:26.677Z,78.64
2023-08-06T19:34:24.353Z,79.34
2023-08-06T19:36:51.474Z,79.58
2023-08-06T19:39:18.775Z,80.48
2023-08-06T19:41:45.963Z,80.47
2023-08-06T19:44:13.124Z,81.22
2023-08-06T19:46:40.301Z,81.33
2023-08-06T19:49:07.465Z,79.70
2023-08-06T19:51:38.099Z,80.50
2023-08-06T19:54:05.256Z,80.13
2023-08-06T19:56:32.793Z,80.97
2023-08-06T19:58:59.961Z,81.20
2023-08-06T20:01:28.904Z,80.14
2023-08-06T20:03:56.342Z,80.56
2023-08-06T20:06:32.612Z,81.19
2023-08-06T20:08:59.851Z,80.35
2023-08-06T20:11:27.162Z,79.41
2023-08-06T20:13:54.439Z,79.87
2023-08-06T20:16:21.683Z,79.58
2023-08-06T20:18:48.912Z,79.62
2023-08-06T20:21:17.239Z,78.91
2023-08-06T20:23:44.544Z,78.90
2023-08-06T20:26:11.724Z,78.73
2023-08-06T20:28:38.852Z,79.97
2023-08-06T20:31:06.096Z,79.54
2023-08-06T20:33:34.660Z,78.78
2023-08-06T20:36:01.827Z,78.78
2023-08-06T20:38:29.074Z,78.38
2023-08-06T20:40:56.774Z,78.24
2023-08-06T20:43:27.182Z,78.14
2023-08-06T20:45:55.835Z,78.11
2023-08-06T20:48:23.430Z,78.68
2023-08-06T20:50:51.313Z,78.74
2023-08-06T20:53:18.666Z,79.76
2023-08-06T20:55:45.822Z,80.08
2023-08-06T20:58:13.027Z,80.18
2023-08-06T21:00:40.255Z,80.79
2023-08-06T21:03:07.433Z,80.93
2023-08-06T21:05:34.853Z,80.82
2023-08-06T21:08:01.991Z,81.32
2023-08-06T21:10:29.146Z,81.81
2023-08-06T21:12:56.358Z,81.63
2023-08-06T21:15:23.492Z,81.71
2023-08-06T21:17:50.668Z,81.35
2023-08-06T21:20:19.607Z,81.39
2023-08-06T21:22:46.774Z,81.52
2023-08-06T21:25:13.952Z,82.64
2023-08-06T21:27:43.849Z,82.28
2023-08-06T21:30:13.375Z,82.46
2023-08-06T21:32:40.958Z,82.90
2023-08-06T21:35:11.205Z,82.34
2023-08-06T21:37:38.789Z,83.63
2023-08-06T21:40:06.420Z,84.09
2023-08-06T21:42:33.617Z,84.43
2023-08-06T21:45:02.701Z,83.82
2023-08-06T21:47:29.890Z,84.47
2023-08-06T21:49:57.015Z,84.18
2023-08-06T21:52:24.176Z,83.57
2023-08-06T21:54:51.789Z,84.47
2023-08-06T21:57:18.951Z,83.62
2023-08-06T21:59:46.084Z,83.55
2023-08-06T22:02:13.210Z,83.07
2023-08-06T22:04:40.349Z,83.18
2023-08-06T22:07:07.516Z,84.20
2023-08-06T22:09:34.713Z,84.65
2023-08-06T22:12:01.871Z,84.53
2023-08-06T22:14:29.015Z,85.14
2023-08-06T22:16:56.181Z,84.00
2023-08-06T22:19:23.313Z,83.96
2023-08-06T22:21:50.517Z,84.01
2023-08-06T22:24:17.750Z,83.34
2023-08-06T22:26:44.863Z,84.04
2023-08-06T22:29:12.030Z,83.61
2023-08-06T22:31:39.121Z,83.20
2023-08-06T22:34:06.270Z,82.49
2023-08-06T22:36:33.383Z,82.93
2023-08-06T22:39:00.574Z,81.85
2023-08-06T22:41:27.772Z,82.26
2023-08-06T22:43:54.992Z,82.40
2023-08-06T22:46:22.861Z,81.47
2023-08-06T22:48:50.063Z,81.55
2023-08-06T22:51:17.772Z,82.00
2023-08-06T22:53:45.266Z,82.29
2023-08-06T22:56:12.446Z,82.54
2023-08-06T22:58:39.648Z,81.75
2023-08-06T23:01:07.444Z,82.75
2023-08-06T23:03:35.516Z,82.33
2023-08-06T23:06:02.877Z,82.31
2023-08-06T23:08:30.079Z,82.28
2023-08-06T23:10:57.269Z,82.89
2023-08-06T23:13:24.415Z,83.05
2023-08-06T23:15:51.617Z,83.17
2023-08-06T23:18:18.761Z,82.22
2023-08-06T23:20:46.202Z,83.14
2023-08-06T23:23:13.323Z,83.75
2023-08-06T23:25:40.494Z,83.26
2023-08-06T23:28:07.661Z,83.49
2023-08-06T23:30:34.853Z,82.93
2023-08-06T23:33:02.724Z,83.26
2023-08-06T23:35:30.025Z,82.58
2023-08-06T23:37:57.182Z,84.09
2023-08-06T23:40:24.321Z,82.86
2023-08-06T23:42:51.462Z,83.50
2023-08-06T23:45:21.248Z,82.60
2023-08-06T23:47:48.408Z,82.92
2023-08-06T23:50:16.647Z,83.04
2023-08-06T23:52:43.862Z,82.09
2023-08-06T23:55:11.506Z,82.62
2023-08-06T23:57:38.815Z,82.89
